PWSweather.com
Personal Weather Stations
Station Observations
WODONGA
Wodonga, WodongaAU 3690

WodongaWodongaAU 3690

Lat: -36.121, Lon: 146.87

Elevation: 541

Station Type: Weather Station

http://www.wodongaweather.net

Latest ConditionsUpdated 5:50:02 PM GMT+10:10 Tuesday, Jun 28, 2016
Currently Today's Max Today's Min Today's Average
Temperature 48.6°F9.2°C 55.8°F13.2°C 40.6°F4.8°C 46.1°F7.8°C
Dew Point 46.3°F7.9°C 49.3°F9.6°C 39.9°F4.4°C 43.8°F6.6°C
Winds 3.5 mph NW5.6 kmh NW 7.9 mph WNW12.7 kmh WNW - 1.8 mph 2.9 kmh
Wind Gusts 6.0 mph9.7 kmh 10.7 mph17.2 kmh - -
Humidity 92% 98% 77% 92%
Pressure 30.34 in1027.4 mb 30.34 in1027.4 mb 30.19 in1022.4 mb -
Hour Temp Dew Point Humidity Winds Wind Gusts Pressure Precip Precip Rate Daily Precip Total
05:50 PM 48.6°F9.2°C 46.3°F7.9°C 92% 3.5 mph NW5.6 kmh NW 6.0 mph9.7 kmh 30.34 in1027.4 mb 0.00 in0.0 mm 0.00 in0.0 mm 0.00 in0.0 mm
05:45 PM 48.6°F9.2°C 46.3°F7.9°C 92% 4.8 mph NW7.7 kmh NW 6.0 mph9.7 kmh 30.33 in1027.1 mb 0.00 in0.0 mm 0.00 in0.0 mm 0.00 in0.0 mm
05:40 PM 48.6°F9.2°C 46.3°F7.9°C 92% 4.1 mph NW6.6 kmh NW 6.0 mph9.7 kmh 30.33 in1027.1 mb 0.00 in0.0 mm 0.00 in0.0 mm 0.00 in0.0 mm
05:35 PM 48.4°F9.1°C 46.2°F7.9°C 92% 4.0 mph NW6.4 kmh NW 6.0 mph9.7 kmh 30.33 in1027.1 mb 0.00 in0.0 mm 0.00 in0.0 mm 0.00 in0.0 mm
05:30 PM 48.2°F9.0°C 46.0°F7.8°C 92% 5.5 mph WNW8.9 kmh WNW 7.6 mph12.2 kmh 30.33 in1027.1 mb 0.00 in0.0 mm 0.00 in0.0 mm 0.00 in0.0 mm
05:25 PM 48.2°F9.0°C 46.0°F7.8°C 92% 6.2 mph WNW10.0 kmh WNW 7.6 mph12.2 kmh 30.32 in1026.8 mb 0.00 in0.0 mm 0.00 in0.0 mm 0.00 in0.0 mm
05:20 PM 48.6°F9.2°C 46.1°F7.8°C 91% 6.0 mph NW9.7 kmh NW 7.6 mph12.2 kmh 30.33 in1027.1 mb 0.00 in0.0 mm 0.00 in0.0 mm 0.00 in0.0 mm
05:15 PM 48.6°F9.2°C 46.1°F7.8°C 91% 5.8 mph NW9.3 kmh NW 7.6 mph12.2 kmh 30.33 in1027.1 mb 0.00 in0.0 mm 0.00 in0.0 mm 0.00 in0.0 mm
05:10 PM 48.7°F9.3°C 45.9°F7.7°C 90% 5.8 mph NW9.3 kmh NW 6.9 mph11.1 kmh 30.32 in1026.8 mb 0.00 in0.0 mm 0.00 in0.0 mm 0.00 in0.0 mm
05:05 PM 48.9°F9.4°C 45.8°F7.7°C 89% 5.9 mph NW9.5 kmh NW 6.9 mph11.1 kmh 30.32 in1026.8 mb 0.00 in0.0 mm 0.00 in0.0 mm 0.00 in0.0 mm
05:00 PM 49.1°F9.5°C 46.0°F7.8°C 89% 5.2 mph NW8.4 kmh NW 6.9 mph11.1 kmh 30.33 in1027.1 mb 0.00 in0.0 mm 0.00 in0.0 mm 0.00 in0.0 mm
04:55 PM 49.3°F9.6°C 46.2°F7.9°C 89% 4.5 mph NW7.2 kmh NW 5.4 mph8.7 kmh 30.32 in1026.8 mb 0.00 in0.0 mm 0.00 in0.0 mm 0.00 in0.0 mm
04:50 PM 49.5°F9.7°C 46.1°F7.8°C 88% 4.8 mph NW7.7 kmh NW 6.0 mph9.7 kmh 30.32 in1026.8 mb 0.00 in0.0 mm 0.00 in0.0 mm 0.00 in0.0 mm
04:45 PM 49.6°F9.8°C 46.2°F7.9°C 88% 3.7 mph NW6.0 kmh NW 6.0 mph9.7 kmh 30.32 in1026.8 mb 0.00 in0.0 mm 0.00 in0.0 mm 0.00 in0.0 mm
04:40 PM 49.8°F9.9°C 46.4°F8.0°C 88% 1.9 mph NW3.1 kmh NW 3.8 mph6.1 kmh 30.32 in1026.8 mb 0.00 in0.0 mm 0.00 in0.0 mm 0.00 in0.0 mm
04:35 PM 49.8°F9.9°C 46.4°F8.0°C 88% 2.0 mph NW3.2 kmh NW 3.1 mph5.0 kmh 30.32 in1026.8 mb 0.00 in0.0 mm 0.00 in0.0 mm 0.00 in0.0 mm
04:30 PM 49.8°F9.9°C 46.4°F8.0°C 88% 2.4 mph NNW3.9 kmh NNW 3.1 mph5.0 kmh 30.32 in1026.8 mb 0.00 in0.0 mm 0.00 in0.0 mm 0.00 in0.0 mm
04:25 PM 49.8°F9.9°C 46.4°F8.0°C 88% 2.2 mph N3.5 kmh N 3.1 mph5.0 kmh 30.31 in1026.4 mb 0.00 in0.0 mm 0.00 in0.0 mm 0.00 in0.0 mm
04:20 PM 50.0°F10.0°C 46.6°F8.1°C 88% 2.5 mph NW4.0 kmh NW 3.8 mph6.1 kmh 30.31 in1026.4 mb 0.00 in0.0 mm 0.00 in0.0 mm 0.00 in0.0 mm
04:15 PM 50.2°F10.1°C 46.5°F8.1°C 87% 3.1 mph W5.0 kmh W 3.8 mph6.1 kmh 30.32 in1026.8 mb 0.00 in0.0 mm 0.00 in0.0 mm 0.00 in0.0 mm
04:10 PM 50.0°F10.0°C 46.3°F7.9°C 87% 2.9 mph WNW4.7 kmh WNW 3.8 mph6.1 kmh 30.32 in1026.8 mb 0.00 in0.0 mm 0.00 in0.0 mm 0.00 in0.0 mm
04:05 PM 49.8°F9.9°C 46.1°F7.8°C 87% 1.9 mph W3.1 kmh W 3.1 mph5.0 kmh 30.32 in1026.8 mb 0.00 in0.0 mm 0.00 in0.0 mm 0.00 in0.0 mm
04:00 PM 50.0°F10.0°C 46.3°F7.9°C 87% 2.2 mph W3.5 kmh W 5.4 mph8.7 kmh 30.31 in1026.4 mb 0.00 in0.0 mm 0.00 in0.0 mm 0.00 in0.0 mm
03:55 PM 50.0°F10.0°C 46.3°F7.9°C 87% 2.0 mph W3.2 kmh W 5.4 mph8.7 kmh 30.32 in1026.8 mb 0.00 in0.0 mm 0.00 in0.0 mm 0.00 in0.0 mm
03:50 PM 50.0°F10.0°C 46.3°F7.9°C 87% 2.1 mph W3.4 kmh W 4.5 mph7.2 kmh 30.31 in1026.4 mb 0.00 in0.0 mm 0.00 in0.0 mm 0.00 in0.0 mm
03:45 PM 50.0°F10.0°C 46.3°F7.9°C 87% 3.2 mph W5.1 kmh W 4.5 mph7.2 kmh 30.32 in1026.8 mb 0.00 in0.0 mm 0.00 in0.0 mm 0.00 in0.0 mm
03:40 PM 50.0°F10.0°C 46.3°F7.9°C 87% 2.7 mph WNW4.3 kmh WNW 4.5 mph7.2 kmh 30.31 in1026.4 mb 0.00 in0.0 mm 0.00 in0.0 mm 0.00 in0.0 mm
03:35 PM 49.8°F9.9°C 45.8°F7.7°C 86% 2.8 mph NW4.5 kmh NW 3.8 mph6.1 kmh 30.31 in1026.4 mb 0.00 in0.0 mm 0.00 in0.0 mm 0.00 in0.0 mm
03:30 PM 50.0°F10.0°C 46.0°F7.8°C 86% 3.3 mph NW5.3 kmh NW 4.5 mph7.2 kmh 30.31 in1026.4 mb 0.00 in0.0 mm 0.00 in0.0 mm 0.00 in0.0 mm
03:25 PM 50.2°F10.1°C 45.9°F7.7°C 85% 3.1 mph NW5.0 kmh NW 4.5 mph7.2 kmh 30.31 in1026.4 mb 0.00 in0.0 mm 0.00 in0.0 mm 0.00 in0.0 mm
03:20 PM 50.4°F10.2°C 46.0°F7.8°C 85% 2.0 mph NW3.2 kmh NW 4.5 mph7.2 kmh 30.31 in1026.4 mb 0.00 in0.0 mm 0.00 in0.0 mm 0.00 in0.0 mm
03:15 PM 50.5°F10.3°C 45.9°F7.7°C 84% 1.2 mph NW1.9 kmh NW 2.2 mph3.5 kmh 30.30 in1026.1 mb 0.00 in0.0 mm 0.00 in0.0 mm 0.00 in0.0 mm
03:10 PM 50.9°F10.5°C 46.2°F7.9°C 84% 0.9 mph NW1.4 kmh NW 1.6 mph2.6 kmh 30.30 in1026.1 mb 0.00 in0.0 mm 0.00 in0.0 mm 0.00 in0.0 mm
03:05 PM 51.1°F10.6°C 46.7°F8.2°C 85% 0.6 mph WSW1.0 kmh WSW 0.7 mph1.1 kmh 30.30 in1026.1 mb 0.00 in0.0 mm 0.00 in0.0 mm 0.00 in0.0 mm
03:00 PM 51.1°F10.6°C 46.7°F8.2°C 85% 0.6 mph SW1.0 kmh SW 1.6 mph2.6 kmh 30.30 in1026.1 mb 0.00 in0.0 mm 0.00 in0.0 mm 0.00 in0.0 mm
02:55 PM 50.7°F10.4°C 46.7°F8.2°C 86% 0.6 mph SW1.0 kmh SW 1.6 mph2.6 kmh 30.30 in1026.1 mb 0.00 in0.0 mm 0.00 in0.0 mm 0.00 in0.0 mm
02:50 PM 50.4°F10.2°C 46.0°F7.8°C 85% 1.0 mph WSW1.6 kmh WSW 2.2 mph3.5 kmh 30.30 in1026.1 mb 0.00 in0.0 mm 0.00 in0.0 mm 0.00 in0.0 mm
02:45 PM 50.2°F10.1°C 45.9°F7.7°C 85% 2.2 mph W3.5 kmh W 4.5 mph7.2 kmh 30.30 in1026.1 mb 0.00 in0.0 mm 0.00 in0.0 mm 0.00 in0.0 mm
02:40 PM 50.0°F10.0°C 46.0°F7.8°C 86% 2.7 mph WNW4.3 kmh WNW 4.5 mph7.2 kmh 30.30 in1026.1 mb 0.00 in0.0 mm 0.00 in0.0 mm 0.00 in0.0 mm
02:35 PM 49.6°F9.8°C 45.6°F7.6°C 86% 3.5 mph WNW5.6 kmh WNW 6.0 mph9.7 kmh 30.30 in1026.1 mb 0.00 in0.0 mm 0.00 in0.0 mm 0.00 in0.0 mm
02:30 PM 49.5°F9.7°C 45.5°F7.5°C 86% 4.9 mph WNW7.9 kmh WNW 6.0 mph9.7 kmh 30.30 in1026.1 mb 0.00 in0.0 mm 0.00 in0.0 mm 0.00 in0.0 mm
02:25 PM 49.5°F9.7°C 45.1°F7.3°C 85% 5.7 mph WNW9.2 kmh WNW 7.6 mph12.2 kmh 30.30 in1026.1 mb 0.00 in0.0 mm 0.00 in0.0 mm 0.00 in0.0 mm
02:20 PM 49.6°F9.8°C 45.3°F7.4°C 85% 7.2 mph WNW11.6 kmh WNW 10.7 mph17.2 kmh 30.30 in1026.1 mb 0.00 in0.0 mm 0.00 in0.0 mm 0.00 in0.0 mm
02:15 PM 49.8°F9.9°C 45.2°F7.3°C 84% 7.9 mph WNW12.7 kmh WNW 10.7 mph17.2 kmh 30.30 in1026.1 mb 0.00 in0.0 mm 0.00 in0.0 mm 0.00 in0.0 mm
02:10 PM 50.2°F10.1°C 45.2°F7.3°C 83% 7.8 mph NW12.6 kmh NW 10.7 mph17.2 kmh 30.30 in1026.1 mb 0.00 in0.0 mm 0.00 in0.0 mm 0.00 in0.0 mm
02:05 PM 50.4°F10.2°C 45.4°F7.4°C 83% 7.6 mph NW12.2 kmh NW 10.7 mph17.2 kmh 30.30 in1026.1 mb 0.00 in0.0 mm 0.00 in0.0 mm 0.00 in0.0 mm
02:00 PM 50.5°F10.3°C 45.6°F7.6°C 83% 6.4 mph NW10.3 kmh NW 8.3 mph13.4 kmh 30.30 in1026.1 mb 0.00 in0.0 mm 0.00 in0.0 mm 0.00 in0.0 mm
01:55 PM 50.4°F10.2°C 45.4°F7.4°C 83% 5.9 mph NW9.5 kmh NW 8.3 mph13.4 kmh 30.30 in1026.1 mb 0.00 in0.0 mm 0.00 in0.0 mm 0.00 in0.0 mm
01:50 PM 50.2°F10.1°C 45.2°F7.3°C 83% 6.1 mph NW9.8 kmh NW 7.6 mph12.2 kmh 30.30 in1026.1 mb 0.00 in0.0 mm 0.00 in0.0 mm 0.00 in0.0 mm
01:45 PM 50.0°F10.0°C 45.0°F7.2°C 83% 6.5 mph NW10.5 kmh NW 7.6 mph12.2 kmh 30.30 in1026.1 mb 0.00 in0.0 mm 0.00 in0.0 mm 0.00 in0.0 mm
01:40 PM 50.0°F10.0°C 44.7°F7.1°C 82% 7.0 mph NW11.3 kmh NW 9.2 mph14.8 kmh 30.30 in1026.1 mb 0.00 in0.0 mm 0.00 in0.0 mm 0.00 in0.0 mm
01:35 PM 50.2°F10.1°C 44.9°F7.2°C 82% 5.9 mph NW9.5 kmh NW 9.2 mph14.8 kmh 30.30 in1026.1 mb 0.00 in0.0 mm 0.00 in0.0 mm 0.00 in0.0 mm
01:30 PM 50.2°F10.1°C 44.9°F7.2°C 82% 5.4 mph NW8.7 kmh NW 7.6 mph12.2 kmh 30.30 in1026.1 mb 0.00 in0.0 mm 0.00 in0.0 mm 0.00 in0.0 mm
01:25 PM 50.4°F10.2°C 45.1°F7.3°C 82% 5.6 mph NW9.0 kmh NW 7.6 mph12.2 kmh 30.30 in1026.1 mb 0.00 in0.0 mm 0.00 in0.0 mm 0.00 in0.0 mm
01:20 PM 50.5°F10.3°C 45.3°F7.4°C 82% 4.6 mph NW7.4 kmh NW 6.9 mph11.1 kmh 30.30 in1026.1 mb 0.00 in0.0 mm 0.00 in0.0 mm 0.00 in0.0 mm
01:15 PM 50.9°F10.5°C 45.6°F7.6°C 82% 4.2 mph NW6.8 kmh NW 6.0 mph9.7 kmh 30.30 in1026.1 mb 0.00 in0.0 mm 0.00 in0.0 mm 0.00 in0.0 mm
01:10 PM 50.7°F10.4°C 45.4°F7.4°C 82% 3.7 mph WNW6.0 kmh WNW 6.0 mph9.7 kmh 30.30 in1026.1 mb 0.00 in0.0 mm 0.00 in0.0 mm 0.00 in0.0 mm
01:05 PM 50.7°F10.4°C 45.4°F7.4°C 82% 3.7 mph WNW6.0 kmh WNW 7.6 mph12.2 kmh 30.30 in1026.1 mb 0.00 in0.0 mm 0.00 in0.0 mm 0.00 in0.0 mm
01:00 PM 50.9°F10.5°C 45.3°F7.4°C 81% 4.2 mph NW6.8 kmh NW 7.6 mph12.2 kmh 30.30 in1026.1 mb 0.00 in0.0 mm 0.00 in0.0 mm 0.00 in0.0 mm
12:55 PM 50.9°F10.5°C 45.3°F7.4°C 81% 3.3 mph N5.3 kmh N 4.5 mph7.2 kmh 30.30 in1026.1 mb 0.00 in0.0 mm 0.00 in0.0 mm 0.00 in0.0 mm
12:50 PM 51.4°F10.8°C 45.8°F7.7°C 81% 3.0 mph NW4.8 kmh NW 3.8 mph6.1 kmh 30.30 in1026.1 mb 0.00 in0.0 mm 0.00 in0.0 mm 0.00 in0.0 mm
12:45 PM 51.6°F10.9°C 45.7°F7.6°C 80% 3.3 mph NNW5.3 kmh NNW 5.4 mph8.7 kmh 30.30 in1026.1 mb 0.00 in0.0 mm 0.00 in0.0 mm 0.00 in0.0 mm
12:40 PM 51.8°F11.0°C 46.2°F7.9°C 81% 2.8 mph NNW4.5 kmh NNW 5.4 mph8.7 kmh 30.30 in1026.1 mb 0.00 in0.0 mm 0.00 in0.0 mm 0.00 in0.0 mm
12:35 PM 52.0°F11.1°C 46.3°F7.9°C 81% 2.4 mph NW3.9 kmh NW 5.4 mph8.7 kmh 30.30 in1026.1 mb 0.00 in0.0 mm 0.00 in0.0 mm 0.00 in0.0 mm
12:30 PM 52.0°F11.1°C 46.0°F7.8°C 80% 3.1 mph N5.0 kmh N 5.4 mph8.7 kmh 30.30 in1026.1 mb 0.00 in0.0 mm 0.00 in0.0 mm 0.00 in0.0 mm
12:25 PM 52.3°F11.3°C 46.4°F8.0°C 80% 3.3 mph N5.3 kmh N 5.4 mph8.7 kmh 30.30 in1026.1 mb 0.00 in0.0 mm 0.00 in0.0 mm 0.00 in0.0 mm
12:20 PM 52.7°F11.5°C 46.4°F8.0°C 79% 4.1 mph NW6.6 kmh NW 6.0 mph9.7 kmh 30.30 in1026.1 mb 0.00 in0.0 mm 0.00 in0.0 mm 0.00 in0.0 mm
12:15 PM 53.1°F11.7°C 46.7°F8.2°C 79% 4.9 mph NW7.9 kmh NW 6.0 mph9.7 kmh 30.31 in1026.4 mb 0.00 in0.0 mm 0.00 in0.0 mm 0.00 in0.0 mm
12:10 PM 54.0°F12.2°C 46.9°F8.3°C 77% 4.3 mph NNW6.9 kmh NNW 5.4 mph8.7 kmh 30.30 in1026.1 mb 0.00 in0.0 mm 0.00 in0.0 mm 0.00 in0.0 mm
12:05 PM 55.8°F13.2°C 49.0°F9.4°C 78% 3.8 mph N6.1 kmh N 5.4 mph8.7 kmh 30.30 in1026.1 mb 0.00 in0.0 mm 0.00 in0.0 mm 0.00 in0.0 mm
12:00 PM 55.4°F13.0°C 49.0°F9.4°C 79% 4.0 mph N6.4 kmh N 6.0 mph9.7 kmh 30.30 in1026.1 mb 0.00 in0.0 mm 0.00 in0.0 mm 0.00 in0.0 mm
11:55 AM 54.7°F12.6°C 49.3°F9.6°C 82% 3.4 mph NNE5.5 kmh NNE 6.0 mph9.7 kmh 30.31 in1026.4 mb 0.00 in0.0 mm 0.00 in0.0 mm 0.00 in0.0 mm
11:50 AM 53.2°F11.8°C 48.5°F9.2°C 84% 2.3 mph N3.7 kmh N 4.5 mph7.2 kmh 30.32 in1026.8 mb 0.00 in0.0 mm 0.00 in0.0 mm 0.00 in0.0 mm
11:45 AM 51.4°F10.8°C 47.4°F8.6°C 86% 2.1 mph N3.4 kmh N 3.1 mph5.0 kmh 30.31 in1026.4 mb 0.00 in0.0 mm 0.00 in0.0 mm 0.00 in0.0 mm
11:40 AM 50.2°F10.1°C 46.2°F7.9°C 86% 2.4 mph N3.9 kmh N 3.8 mph6.1 kmh 30.31 in1026.4 mb 0.00 in0.0 mm 0.00 in0.0 mm 0.00 in0.0 mm
11:35 AM 49.5°F9.7°C 45.8°F7.7°C 87% 2.3 mph N3.7 kmh N 3.8 mph6.1 kmh 30.32 in1026.8 mb 0.00 in0.0 mm 0.00 in0.0 mm 0.00 in0.0 mm
11:30 AM 49.1°F9.5°C 45.4°F7.4°C 87% 1.7 mph N2.7 kmh N 3.1 mph5.0 kmh 30.32 in1026.8 mb 0.00 in0.0 mm 0.00 in0.0 mm 0.00 in0.0 mm
11:25 AM 49.5°F9.7°C 45.8°F7.7°C 87% 1.5 mph NNE2.4 kmh NNE 3.1 mph5.0 kmh 30.31 in1026.4 mb 0.00 in0.0 mm 0.00 in0.0 mm 0.00 in0.0 mm
11:20 AM 49.8°F9.9°C 45.8°F7.7°C 86% 2.4 mph SE3.9 kmh SE 4.5 mph7.2 kmh 30.32 in1026.8 mb 0.00 in0.0 mm 0.00 in0.0 mm 0.00 in0.0 mm
11:15 AM 50.5°F10.3°C 46.5°F8.1°C 86% 3.5 mph ESE5.6 kmh ESE 4.5 mph7.2 kmh 30.32 in1026.8 mb 0.00 in0.0 mm 0.00 in0.0 mm 0.00 in0.0 mm
11:10 AM 50.7°F10.4°C 46.7°F8.2°C 86% 3.3 mph ENE5.3 kmh ENE 4.5 mph7.2 kmh 30.32 in1026.8 mb 0.00 in0.0 mm 0.00 in0.0 mm 0.00 in0.0 mm
11:05 AM 51.4°F10.8°C 47.7°F8.7°C 87% 2.3 mph ENE3.7 kmh ENE 3.8 mph6.1 kmh 30.32 in1026.8 mb 0.00 in0.0 mm 0.00 in0.0 mm 0.00 in0.0 mm
11:00 AM 50.7°F10.4°C 47.6°F8.7°C 89% 2.1 mph N3.4 kmh N 3.1 mph5.0 kmh 30.32 in1026.8 mb 0.00 in0.0 mm 0.00 in0.0 mm 0.00 in0.0 mm
10:55 AM 49.5°F9.7°C 46.9°F8.3°C 91% 2.4 mph N3.9 kmh N 4.5 mph7.2 kmh 30.32 in1026.8 mb 0.00 in0.0 mm 0.00 in0.0 mm 0.00 in0.0 mm
10:50 AM 48.6°F9.2°C 46.1°F7.8°C 91% 2.3 mph NNE3.7 kmh NNE 4.5 mph7.2 kmh 30.32 in1026.8 mb 0.00 in0.0 mm 0.00 in0.0 mm 0.00 in0.0 mm
10:45 AM 48.2°F9.0°C 45.7°F7.6°C 91% 2.1 mph N3.4 kmh N 3.1 mph5.0 kmh 30.32 in1026.8 mb 0.00 in0.0 mm 0.00 in0.0 mm 0.00 in0.0 mm
10:40 AM 48.0°F8.9°C 45.5°F7.5°C 91% 2.0 mph N3.2 kmh N 3.1 mph5.0 kmh 30.32 in1026.8 mb 0.00 in0.0 mm 0.00 in0.0 mm 0.00 in0.0 mm
10:35 AM 48.2°F9.0°C 46.0°F7.8°C 92% 2.2 mph SE3.5 kmh SE 3.1 mph5.0 kmh 30.32 in1026.8 mb 0.00 in0.0 mm 0.00 in0.0 mm 0.00 in0.0 mm
10:30 AM 48.0°F8.9°C 45.8°F7.7°C 92% 2.5 mph ESE4.0 kmh ESE 3.1 mph5.0 kmh 30.32 in1026.8 mb 0.00 in0.0 mm 0.00 in0.0 mm 0.00 in0.0 mm
10:25 AM 48.0°F8.9°C 46.1°F7.8°C 93% 2.7 mph ESE4.3 kmh ESE 3.8 mph6.1 kmh 30.32 in1026.8 mb 0.00 in0.0 mm 0.00 in0.0 mm 0.00 in0.0 mm
10:20 AM 47.5°F8.6°C 45.8°F7.7°C 94% 2.8 mph E4.5 kmh E 3.8 mph6.1 kmh 30.32 in1026.8 mb 0.00 in0.0 mm 0.00 in0.0 mm 0.00 in0.0 mm
10:15 AM 46.9°F8.3°C 45.3°F7.4°C 94% 1.9 mph E3.1 kmh E 3.1 mph5.0 kmh 30.32 in1026.8 mb 0.00 in0.0 mm 0.00 in0.0 mm 0.00 in0.0 mm
10:10 AM 46.8°F8.2°C 45.4°F7.4°C 95% 1.1 mph NE1.8 kmh NE 3.1 mph5.0 kmh 30.32 in1026.8 mb 0.00 in0.0 mm 0.00 in0.0 mm 0.00 in0.0 mm
10:05 AM 46.4°F8.0°C 45.0°F7.2°C 95% 1.3 mph NW2.1 kmh NW 2.2 mph3.5 kmh 30.32 in1026.8 mb 0.00 in0.0 mm 0.00 in0.0 mm 0.00 in0.0 mm
10:00 AM 45.9°F7.7°C 44.5°F6.9°C 95% 1.6 mph N2.6 kmh N 3.1 mph5.0 kmh 30.32 in1026.8 mb 0.00 in0.0 mm 0.00 in0.0 mm 0.00 in0.0 mm
09:55 AM 45.7°F7.6°C 44.6°F7.0°C 96% 1.5 mph NE2.4 kmh NE 3.1 mph5.0 kmh 30.32 in1026.8 mb 0.00 in0.0 mm 0.00 in0.0 mm 0.00 in0.0 mm
09:50 AM 43.0°F6.1°C 42.2°F5.7°C 97% 1.5 mph E2.4 kmh E 2.2 mph3.5 kmh 30.30 in1026.1 mb 0.00 in0.0 mm 0.00 in0.0 mm 0.00 in0.0 mm
09:45 AM 44.8°F7.1°C 43.7°F6.5°C 96% 1.2 mph NE1.9 kmh NE 2.2 mph3.5 kmh 30.32 in1026.8 mb 0.00 in0.0 mm 0.00 in0.0 mm 0.00 in0.0 mm
09:40 AM 44.4°F6.9°C 43.4°F6.3°C 96% 1.2 mph NE1.9 kmh NE 2.2 mph3.5 kmh 30.32 in1026.8 mb 0.00 in0.0 mm 0.00 in0.0 mm 0.00 in0.0 mm
09:35 AM 44.6°F7.0°C 43.5°F6.4°C 96% 1.7 mph NE2.7 kmh NE 2.2 mph3.5 kmh 30.32 in1026.8 mb 0.00 in0.0 mm 0.00 in0.0 mm 0.00 in0.0 mm
09:30 AM 44.6°F7.0°C 43.5°F6.4°C 96% 2.0 mph NE3.2 kmh NE 3.8 mph6.1 kmh 30.32 in1026.8 mb 0.00 in0.0 mm 0.00 in0.0 mm 0.00 in0.0 mm
09:25 AM 44.8°F7.1°C 44.0°F6.7°C 97% 2.0 mph E3.2 kmh E 3.8 mph6.1 kmh 30.32 in1026.8 mb 0.00 in0.0 mm 0.00 in0.0 mm 0.00 in0.0 mm
09:20 AM 44.4°F6.9°C 43.6°F6.4°C 97% 1.8 mph SE2.9 kmh SE 3.8 mph6.1 kmh 30.31 in1026.4 mb 0.00 in0.0 mm 0.00 in0.0 mm 0.00 in0.0 mm
09:15 AM 44.1°F6.7°C 43.3°F6.3°C 97% 1.9 mph SE3.1 kmh SE 3.1 mph5.0 kmh 30.31 in1026.4 mb 0.00 in0.0 mm 0.00 in0.0 mm 0.00 in0.0 mm
09:10 AM 43.7°F6.5°C 42.9°F6.1°C 97% 1.0 mph SE1.6 kmh SE 3.1 mph5.0 kmh 30.31 in1026.4 mb 0.00 in0.0 mm 0.00 in0.0 mm 0.00 in0.0 mm
09:05 AM 43.5°F6.4°C 42.7°F5.9°C 97% 0.5 mph SE0.8 kmh SE 1.6 mph2.6 kmh 30.31 in1026.4 mb 0.00 in0.0 mm 0.00 in0.0 mm 0.00 in0.0 mm
09:00 AM 43.5°F6.4°C 42.7°F5.9°C 97% 1.4 mph ESE2.3 kmh ESE 3.1 mph5.0 kmh 30.30 in1026.1 mb 0.00 in0.0 mm 0.00 in0.0 mm 0.00 in0.0 mm
08:55 AM 43.5°F6.4°C 42.7°F5.9°C 97% 1.5 mph ESE2.4 kmh ESE 3.1 mph5.0 kmh 30.31 in1026.4 mb 0.00 in0.0 mm 0.00 in0.0 mm 0.00 in0.0 mm
08:50 AM 43.3°F6.3°C 42.5°F5.8°C 97% 0.7 mph ESE1.1 kmh ESE 2.2 mph3.5 kmh 30.31 in1026.4 mb 0.00 in0.0 mm 0.00 in0.0 mm 0.00 in0.0 mm
08:45 AM 43.2°F6.2°C 42.4°F5.8°C 97% 1.1 mph E1.8 kmh E 3.1 mph5.0 kmh 30.30 in1026.1 mb 0.00 in0.0 mm 0.00 in0.0 mm 0.00 in0.0 mm
08:40 AM 43.2°F6.2°C 42.4°F5.8°C 97% 1.5 mph ESE2.4 kmh ESE 3.1 mph5.0 kmh 30.30 in1026.1 mb 0.00 in0.0 mm 0.00 in0.0 mm 0.00 in0.0 mm
08:35 AM 43.0°F6.1°C 42.2°F5.7°C 97% 0.7 mph SSE1.1 kmh SSE 1.6 mph2.6 kmh 30.30 in1026.1 mb 0.00 in0.0 mm 0.00 in0.0 mm 0.00 in0.0 mm
08:30 AM 42.8°F6.0°C 42.0°F5.6°C 97% 0.2 mph S0.3 kmh S 0.7 mph1.1 kmh 30.30 in1026.1 mb 0.00 in0.0 mm 0.00 in0.0 mm 0.00 in0.0 mm
08:25 AM 42.8°F6.0°C 42.0°F5.6°C 97% 0.6 mph S1.0 kmh S 1.6 mph2.6 kmh 30.30 in1026.1 mb 0.00 in0.0 mm 0.00 in0.0 mm 0.00 in0.0 mm
08:20 AM 42.8°F6.0°C 42.0°F5.6°C 97% 1.1 mph S1.8 kmh S 1.6 mph2.6 kmh 30.29 in1025.7 mb 0.00 in0.0 mm 0.00 in0.0 mm 0.00 in0.0 mm
08:15 AM 42.6°F5.9°C 41.8°F5.4°C 97% 0.8 mph S1.3 kmh S 1.6 mph2.6 kmh 30.29 in1025.7 mb 0.00 in0.0 mm 0.00 in0.0 mm 0.00 in0.0 mm
08:10 AM 42.4°F5.8°C 41.7°F5.4°C 97% 0.5 mph SE0.8 kmh SE 1.6 mph2.6 kmh 30.29 in1025.7 mb 0.00 in0.0 mm 0.00 in0.0 mm 0.00 in0.0 mm
08:05 AM 42.3°F5.7°C 41.7°F5.4°C 98% 1.2 mph SE1.9 kmh SE 1.6 mph2.6 kmh 30.29 in1025.7 mb 0.00 in0.0 mm 0.00 in0.0 mm 0.00 in0.0 mm
08:00 AM 42.1°F5.6°C 41.6°F5.3°C 98% 1.0 mph SE1.6 kmh SE 1.6 mph2.6 kmh 30.29 in1025.7 mb 0.00 in0.0 mm 0.00 in0.0 mm 0.00 in0.0 mm
07:55 AM 41.9°F5.5°C 41.4°F5.2°C 98% 1.0 mph SSW1.6 kmh SSW 1.6 mph2.6 kmh 30.28 in1025.4 mb 0.00 in0.0 mm 0.00 in0.0 mm 0.00 in0.0 mm
07:50 AM 41.5°F5.3°C 41.0°F5.0°C 98% 0.7 mph S1.1 kmh S 1.6 mph2.6 kmh 30.28 in1025.4 mb 0.00 in0.0 mm 0.00 in0.0 mm 0.00 in0.0 mm
07:45 AM 41.4°F5.2°C 40.8°F4.9°C 98% 0.7 mph S1.1 kmh S 1.6 mph2.6 kmh 30.28 in1025.4 mb 0.00 in0.0 mm 0.00 in0.0 mm 0.00 in0.0 mm
07:40 AM 41.0°F5.0°C 40.5°F4.7°C 98% 0.9 mph S1.4 kmh S 1.6 mph2.6 kmh 30.27 in1025.1 mb 0.00 in0.0 mm 0.00 in0.0 mm 0.00 in0.0 mm
07:35 AM 40.8°F4.9°C 40.3°F4.6°C 98% 0.2 mph SE0.3 kmh SE 0.7 mph1.1 kmh 30.27 in1025.1 mb 0.00 in0.0 mm 0.00 in0.0 mm 0.00 in0.0 mm
07:30 AM 40.6°F4.8°C 39.9°F4.4°C 97% Calm Calm 0.7 mph1.1 kmh 30.27 in1025.1 mb 0.00 in0.0 mm 0.00 in0.0 mm 0.00 in0.0 mm
07:25 AM 40.6°F4.8°C 40.1°F4.5°C 98% 0.9 mph SE1.4 kmh SE 2.2 mph3.5 kmh 30.26 in1024.7 mb 0.00 in0.0 mm 0.00 in0.0 mm 0.00 in0.0 mm
07:20 AM 40.8°F4.9°C 40.0°F4.4°C 97% 1.6 mph SE2.6 kmh SE 2.2 mph3.5 kmh 30.26 in1024.7 mb 0.00 in0.0 mm 0.00 in0.0 mm 0.00 in0.0 mm
07:15 AM 40.8°F4.9°C 40.0°F4.4°C 97% 2.2 mph ESE3.5 kmh ESE 3.1 mph5.0 kmh 30.26 in1024.7 mb 0.00 in0.0 mm 0.00 in0.0 mm 0.00 in0.0 mm
07:10 AM 41.0°F5.0°C 40.2°F4.6°C 97% 2.4 mph ESE3.9 kmh ESE 3.1 mph5.0 kmh 30.25 in1024.4 mb 0.00 in0.0 mm 0.00 in0.0 mm 0.00 in0.0 mm
07:05 AM 41.2°F5.1°C 40.7°F4.8°C 98% 1.2 mph E1.9 kmh E 2.2 mph3.5 kmh 30.25 in1024.4 mb 0.00 in0.0 mm 0.00 in0.0 mm 0.00 in0.0 mm
07:00 AM 41.4°F5.2°C 40.8°F4.9°C 98% 0.5 mph SE0.8 kmh SE 0.7 mph1.1 kmh 30.25 in1024.4 mb 0.00 in0.0 mm 0.00 in0.0 mm 0.00 in0.0 mm
06:55 AM 41.5°F5.3°C 41.0°F5.0°C 98% 0.6 mph SW1.0 kmh SW 1.6 mph2.6 kmh 30.25 in1024.4 mb 0.00 in0.0 mm 0.00 in0.0 mm 0.00 in0.0 mm
06:50 AM 41.5°F5.3°C 41.0°F5.0°C 98% 0.7 mph WSW1.1 kmh WSW 1.6 mph2.6 kmh 30.25 in1024.4 mb 0.00 in0.0 mm 0.00 in0.0 mm 0.00 in0.0 mm
06:45 AM 41.5°F5.3°C 41.0°F5.0°C 98% 0.8 mph SW1.3 kmh SW 2.2 mph3.5 kmh 30.25 in1024.4 mb 0.00 in0.0 mm 0.00 in0.0 mm 0.00 in0.0 mm
06:40 AM 41.5°F5.3°C 41.0°F5.0°C 98% 0.5 mph S0.8 kmh S 2.2 mph3.5 kmh 30.25 in1024.4 mb 0.00 in0.0 mm 0.00 in0.0 mm 0.00 in0.0 mm
06:35 AM 41.4°F5.2°C 40.8°F4.9°C 98% 0.1 mph W0.2 kmh W 0.7 mph1.1 kmh 30.25 in1024.4 mb 0.00 in0.0 mm 0.00 in0.0 mm 0.00 in0.0 mm
06:30 AM 41.4°F5.2°C 40.6°F4.8°C 97% 0.5 mph ESE0.8 kmh ESE 1.6 mph2.6 kmh 30.25 in1024.4 mb 0.00 in0.0 mm 0.00 in0.0 mm 0.00 in0.0 mm
06:25 AM 41.5°F5.3°C 40.8°F4.9°C 97% 1.2 mph ESE1.9 kmh ESE 2.2 mph3.5 kmh 30.25 in1024.4 mb 0.00 in0.0 mm 0.00 in0.0 mm 0.00 in0.0 mm
06:20 AM 41.5°F5.3°C 41.0°F5.0°C 98% 1.2 mph SE1.9 kmh SE 2.2 mph3.5 kmh 30.24 in1024.0 mb 0.00 in0.0 mm 0.00 in0.0 mm 0.00 in0.0 mm
06:15 AM 41.5°F5.3°C 41.0°F5.0°C 98% 0.8 mph WSW1.3 kmh WSW 1.6 mph2.6 kmh 30.24 in1024.0 mb 0.00 in0.0 mm 0.00 in0.0 mm 0.00 in0.0 mm
06:10 AM 41.5°F5.3°C 41.0°F5.0°C 98% 0.3 mph NW0.5 kmh NW 1.6 mph2.6 kmh 30.24 in1024.0 mb 0.00 in0.0 mm 0.00 in0.0 mm 0.00 in0.0 mm
06:05 AM 41.5°F5.3°C 41.0°F5.0°C 98% Calm Calm 0.7 mph1.1 kmh 30.23 in1023.7 mb 0.00 in0.0 mm 0.00 in0.0 mm 0.00 in0.0 mm
06:00 AM 41.7°F5.4°C 40.9°F4.9°C 97% Calm Calm -- 30.23 in1023.7 mb 0.00 in0.0 mm 0.00 in0.0 mm 0.00 in0.0 mm
05:55 AM 41.7°F5.4°C 41.2°F5.1°C 98% Calm Calm 0.7 mph1.1 kmh 30.23 in1023.7 mb 0.00 in0.0 mm 0.00 in0.0 mm 0.00 in0.0 mm
05:50 AM 41.5°F5.3°C 41.0°F5.0°C 98% 0.1 mph SE0.2 kmh SE 0.7 mph1.1 kmh 30.22 in1023.4 mb 0.00 in0.0 mm 0.00 in0.0 mm 0.00 in0.0 mm
05:45 AM 41.5°F5.3°C 41.0°F5.0°C 98% 0.4 mph SE0.6 kmh SE 1.6 mph2.6 kmh 30.22 in1023.4 mb 0.00 in0.0 mm 0.00 in0.0 mm 0.00 in0.0 mm
05:40 AM 41.5°F5.3°C 40.8°F4.9°C 97% 0.5 mph SE0.8 kmh SE 1.6 mph2.6 kmh 30.22 in1023.4 mb 0.00 in0.0 mm 0.00 in0.0 mm 0.00 in0.0 mm
05:35 AM 41.5°F5.3°C 40.8°F4.9°C 97% 0.5 mph SE0.8 kmh SE 1.6 mph2.6 kmh 30.22 in1023.4 mb 0.00 in0.0 mm 0.00 in0.0 mm 0.00 in0.0 mm
05:30 AM 41.5°F5.3°C 40.8°F4.9°C 97% 0.9 mph SE1.4 kmh SE 2.2 mph3.5 kmh 30.22 in1023.4 mb 0.00 in0.0 mm 0.00 in0.0 mm 0.00 in0.0 mm
05:25 AM 41.5°F5.3°C 40.8°F4.9°C 97% 1.0 mph SE1.6 kmh SE 2.2 mph3.5 kmh 30.22 in1023.4 mb 0.00 in0.0 mm 0.00 in0.0 mm 0.00 in0.0 mm
05:20 AM 41.4°F5.2°C 40.6°F4.8°C 97% 0.8 mph E1.3 kmh E 2.2 mph3.5 kmh 30.21 in1023.0 mb 0.00 in0.0 mm 0.00 in0.0 mm 0.00 in0.0 mm
05:15 AM 41.5°F5.3°C 40.8°F4.9°C 97% 0.9 mph S1.4 kmh S 2.2 mph3.5 kmh 30.21 in1023.0 mb 0.00 in0.0 mm 0.00 in0.0 mm 0.00 in0.0 mm
05:10 AM 41.5°F5.3°C 40.8°F4.9°C 97% 1.0 mph S1.6 kmh S 2.2 mph3.5 kmh 30.21 in1023.0 mb 0.00 in0.0 mm 0.00 in0.0 mm 0.00 in0.0 mm
05:05 AM 41.5°F5.3°C 40.8°F4.9°C 97% 1.1 mph S1.8 kmh S 2.2 mph3.5 kmh 30.21 in1023.0 mb 0.00 in0.0 mm 0.00 in0.0 mm 0.00 in0.0 mm
05:00 AM 41.9°F5.5°C 40.8°F4.9°C 96% 0.9 mph S1.4 kmh S 1.6 mph2.6 kmh 30.21 in1023.0 mb 0.00 in0.0 mm 0.00 in0.0 mm 0.00 in0.0 mm
04:55 AM 42.3°F5.7°C 41.5°F5.3°C 97% 0.8 mph S1.3 kmh S 1.6 mph2.6 kmh 30.21 in1023.0 mb 0.00 in0.0 mm 0.00 in0.0 mm 0.00 in0.0 mm
04:50 AM 42.4°F5.8°C 41.7°F5.4°C 97% 0.6 mph S1.0 kmh S 1.6 mph2.6 kmh 30.21 in1023.0 mb 0.00 in0.0 mm 0.00 in0.0 mm 0.00 in0.0 mm
04:45 AM 42.4°F5.8°C 41.7°F5.4°C 97% 0.1 mph SW0.2 kmh SW 0.7 mph1.1 kmh 30.20 in1022.7 mb 0.00 in0.0 mm 0.00 in0.0 mm 0.00 in0.0 mm
04:40 AM 42.4°F5.8°C 41.7°F5.4°C 97% 0.1 mph SW0.2 kmh SW 0.7 mph1.1 kmh 30.21 in1023.0 mb 0.00 in0.0 mm 0.00 in0.0 mm 0.00 in0.0 mm
04:35 AM 42.6°F5.9°C 41.8°F5.4°C 97% 0.1 mph SW0.2 kmh SW 0.7 mph1.1 kmh 30.20 in1022.7 mb 0.00 in0.0 mm 0.00 in0.0 mm 0.00 in0.0 mm
04:30 AM 42.6°F5.9°C 41.8°F5.4°C 97% Calm Calm -- 30.21 in1023.0 mb 0.00 in0.0 mm 0.00 in0.0 mm 0.00 in0.0 mm
04:25 AM 42.8°F6.0°C 42.0°F5.6°C 97% Calm Calm -- 30.20 in1022.7 mb 0.00 in0.0 mm 0.00 in0.0 mm 0.00 in0.0 mm
04:20 AM 43.0°F6.1°C 42.2°F5.7°C 97% Calm Calm -- 30.21 in1023.0 mb 0.00 in0.0 mm 0.00 in0.0 mm 0.00 in0.0 mm
04:15 AM 43.0°F6.1°C 42.2°F5.7°C 97% Calm Calm -- 30.20 in1022.7 mb 0.00 in0.0 mm 0.00 in0.0 mm 0.00 in0.0 mm
04:10 AM 43.0°F6.1°C 41.9°F5.5°C 96% Calm Calm -- 30.20 in1022.7 mb 0.00 in0.0 mm 0.00 in0.0 mm 0.00 in0.0 mm
04:05 AM 43.2°F6.2°C 42.1°F5.6°C 96% Calm Calm -- 30.20 in1022.7 mb 0.00 in0.0 mm 0.00 in0.0 mm 0.00 in0.0 mm
04:00 AM 43.2°F6.2°C 42.1°F5.6°C 96% Calm Calm -- 30.20 in1022.7 mb 0.00 in0.0 mm 0.00 in0.0 mm 0.00 in0.0 mm
03:55 AM 43.3°F6.3°C 42.3°F5.7°C 96% Calm Calm -- 30.20 in1022.7 mb 0.00 in0.0 mm 0.00 in0.0 mm 0.00 in0.0 mm
03:50 AM 43.3°F6.3°C 42.3°F5.7°C 96% Calm Calm -- 30.20 in1022.7 mb 0.00 in0.0 mm 0.00 in0.0 mm 0.00 in0.0 mm
03:45 AM 43.5°F6.4°C 42.5°F5.8°C 96% Calm Calm -- 30.20 in1022.7 mb 0.00 in0.0 mm 0.00 in0.0 mm 0.00 in0.0 mm
03:40 AM 43.5°F6.4°C 42.7°F5.9°C 97% Calm Calm -- 30.21 in1023.0 mb 0.00 in0.0 mm 0.00 in0.0 mm 0.00 in0.0 mm
03:35 AM 43.5°F6.4°C 42.7°F5.9°C 97% Calm Calm -- 30.20 in1022.7 mb 0.00 in0.0 mm 0.00 in0.0 mm 0.00 in0.0 mm
03:30 AM 43.3°F6.3°C 42.3°F5.7°C 96% Calm Calm -- 30.20 in1022.7 mb 0.00 in0.0 mm 0.00 in0.0 mm 0.00 in0.0 mm
03:25 AM 43.3°F6.3°C 42.3°F5.7°C 96% 0.1 mph S0.2 kmh S 0.7 mph1.1 kmh 30.21 in1023.0 mb 0.00 in0.0 mm 0.00 in0.0 mm 0.00 in0.0 mm
03:20 AM 43.3°F6.3°C 42.3°F5.7°C 96% 0.3 mph S0.5 kmh S 0.7 mph1.1 kmh 30.21 in1023.0 mb 0.00 in0.0 mm 0.00 in0.0 mm 0.00 in0.0 mm
03:15 AM 43.3°F6.3°C 42.3°F5.7°C 96% 0.3 mph S0.5 kmh S 0.7 mph1.1 kmh 30.21 in1023.0 mb 0.00 in0.0 mm 0.00 in0.0 mm 0.00 in0.0 mm
03:10 AM 43.3°F6.3°C 42.3°F5.7°C 96% 0.1 mph S0.2 kmh S 0.7 mph1.1 kmh 30.21 in1023.0 mb 0.00 in0.0 mm 0.00 in0.0 mm 0.00 in0.0 mm
03:05 AM 43.5°F6.4°C 42.5°F5.8°C 96% Calm Calm -- 30.21 in1023.0 mb 0.00 in0.0 mm 0.00 in0.0 mm 0.00 in0.0 mm
03:00 AM 43.5°F6.4°C 42.5°F5.8°C 96% Calm Calm -- 30.21 in1023.0 mb 0.00 in0.0 mm 0.00 in0.0 mm 0.00 in0.0 mm
02:55 AM 43.5°F6.4°C 42.5°F5.8°C 96% Calm Calm -- 30.21 in1023.0 mb 0.00 in0.0 mm 0.00 in0.0 mm 0.00 in0.0 mm
02:50 AM 43.7°F6.5°C 42.6°F5.9°C 96% Calm Calm -- 30.20 in1022.7 mb 0.00 in0.0 mm 0.00 in0.0 mm 0.00 in0.0 mm
02:45 AM 43.5°F6.4°C 42.5°F5.8°C 96% Calm Calm -- 30.21 in1023.0 mb 0.00 in0.0 mm 0.00 in0.0 mm 0.00 in0.0 mm
02:40 AM 43.5°F6.4°C 42.5°F5.8°C 96% Calm Calm -- 30.21 in1023.0 mb 0.00 in0.0 mm 0.00 in0.0 mm 0.00 in0.0 mm
02:35 AM 43.5°F6.4°C 42.5°F5.8°C 96% 0.2 mph NW0.3 kmh NW 1.6 mph2.6 kmh 30.21 in1023.0 mb 0.00 in0.0 mm 0.00 in0.0 mm 0.00 in0.0 mm
02:30 AM 43.7°F6.5°C 42.4°F5.8°C 95% 0.7 mph SE1.1 kmh SE 1.6 mph2.6 kmh 30.21 in1023.0 mb 0.00 in0.0 mm 0.00 in0.0 mm 0.00 in0.0 mm
02:25 AM 43.9°F6.6°C 42.8°F6.0°C 96% 0.5 mph SE0.8 kmh SE 1.6 mph2.6 kmh 30.20 in1022.7 mb 0.00 in0.0 mm 0.00 in0.0 mm 0.00 in0.0 mm
02:20 AM 43.9°F6.6°C 42.8°F6.0°C 96% Calm Calm 0.7 mph1.1 kmh 30.20 in1022.7 mb 0.00 in0.0 mm 0.00 in0.0 mm 0.00 in0.0 mm
02:15 AM 43.9°F6.6°C 42.5°F5.8°C 95% Calm Calm -- 30.21 in1023.0 mb 0.00 in0.0 mm 0.00 in0.0 mm 0.00 in0.0 mm
02:10 AM 43.7°F6.5°C 42.4°F5.8°C 95% Calm Calm -- 30.20 in1022.7 mb 0.00 in0.0 mm 0.00 in0.0 mm 0.00 in0.0 mm
02:05 AM 43.7°F6.5°C 42.4°F5.8°C 95% Calm Calm -- 30.20 in1022.7 mb 0.00 in0.0 mm 0.00 in0.0 mm 0.00 in0.0 mm
02:00 AM 43.7°F6.5°C 42.4°F5.8°C 95% Calm Calm -- 30.20 in1022.7 mb 0.00 in0.0 mm 0.00 in0.0 mm 0.00 in0.0 mm
01:55 AM 43.7°F6.5°C 42.4°F5.8°C 95% Calm Calm -- 30.20 in1022.7 mb 0.00 in0.0 mm 0.00 in0.0 mm 0.00 in0.0 mm
01:50 AM 43.7°F6.5°C 42.4°F5.8°C 95% Calm Calm 0.7 mph1.1 kmh 30.20 in1022.7 mb 0.00 in0.0 mm 0.00 in0.0 mm 0.00 in0.0 mm
01:45 AM 43.9°F6.6°C 42.5°F5.8°C 95% Calm Calm 0.7 mph1.1 kmh 30.20 in1022.7 mb 0.00 in0.0 mm 0.00 in0.0 mm 0.00 in0.0 mm
01:40 AM 43.9°F6.6°C 42.5°F5.8°C 95% Calm Calm -- 30.20 in1022.7 mb 0.00 in0.0 mm 0.00 in0.0 mm 0.00 in0.0 mm
01:35 AM 43.9°F6.6°C 42.3°F5.7°C 94% Calm Calm -- 30.20 in1022.7 mb 0.00 in0.0 mm 0.00 in0.0 mm 0.00 in0.0 mm
01:30 AM 44.1°F6.7°C 42.4°F5.8°C 94% Calm Calm -- 30.20 in1022.7 mb 0.00 in0.0 mm 0.00 in0.0 mm 0.00 in0.0 mm
01:25 AM 44.1°F6.7°C 42.4°F5.8°C 94% 0.2 mph S0.3 kmh S 0.7 mph1.1 kmh 30.20 in1022.7 mb 0.00 in0.0 mm 0.00 in0.0 mm 0.00 in0.0 mm
01:20 AM 44.1°F6.7°C 42.4°F5.8°C 94% 0.5 mph S0.8 kmh S 0.7 mph1.1 kmh 30.20 in1022.7 mb 0.00 in0.0 mm 0.00 in0.0 mm 0.00 in0.0 mm
01:15 AM 44.1°F6.7°C 42.4°F5.8°C 94% 0.7 mph S1.1 kmh S 1.6 mph2.6 kmh 30.20 in1022.7 mb 0.00 in0.0 mm 0.00 in0.0 mm 0.00 in0.0 mm
01:10 AM 44.2°F6.8°C 42.6°F5.9°C 94% 0.9 mph S1.4 kmh S 1.6 mph2.6 kmh 30.20 in1022.7 mb 0.00 in0.0 mm 0.00 in0.0 mm 0.00 in0.0 mm
01:05 AM 44.2°F6.8°C 42.6°F5.9°C 94% 0.5 mph S0.8 kmh S 1.6 mph2.6 kmh 30.20 in1022.7 mb 0.00 in0.0 mm 0.00 in0.0 mm 0.00 in0.0 mm
01:00 AM 44.1°F6.7°C 42.2°F5.7°C 93% Calm Calm 0.7 mph1.1 kmh 30.20 in1022.7 mb 0.00 in0.0 mm 0.00 in0.0 mm 0.00 in0.0 mm
12:55 AM 44.1°F6.7°C 42.2°F5.7°C 93% 0.1 mph S0.2 kmh S 0.7 mph1.1 kmh 30.20 in1022.7 mb 0.00 in0.0 mm 0.00 in0.0 mm 0.00 in0.0 mm
12:50 AM 44.1°F6.7°C 42.2°F5.7°C 93% 0.3 mph S0.5 kmh S 1.6 mph2.6 kmh 30.19 in1022.4 mb 0.00 in0.0 mm 0.00 in0.0 mm 0.00 in0.0 mm
12:45 AM 44.2°F6.8°C 42.3°F5.7°C 93% 0.2 mph S0.3 kmh S 1.6 mph2.6 kmh 30.20 in1022.7 mb 0.00 in0.0 mm 0.00 in0.0 mm 0.00 in0.0 mm
12:40 AM 44.4°F6.9°C 42.5°F5.8°C 93% 0.2 mph S0.3 kmh S 0.7 mph1.1 kmh 30.20 in1022.7 mb 0.00 in0.0 mm 0.00 in0.0 mm 0.00 in0.0 mm
12:35 AM 44.4°F6.9°C 42.2°F5.7°C 92% 0.9 mph SSE1.4 kmh SSE 1.6 mph2.6 kmh 30.20 in1022.7 mb 0.00 in0.0 mm 0.00 in0.0 mm 0.00 in0.0 mm
12:30 AM 44.4°F6.9°C 42.2°F5.7°C 92% 0.9 mph SSE1.4 kmh SSE 1.6 mph2.6 kmh 30.20 in1022.7 mb 0.00 in0.0 mm 0.00 in0.0 mm 0.00 in0.0 mm
12:25 AM 44.4°F6.9°C 42.2°F5.7°C 92% 0.2 mph SSW0.3 kmh SSW 0.7 mph1.1 kmh 30.20 in1022.7 mb 0.00 in0.0 mm 0.00 in0.0 mm 0.00 in0.0 mm
12:20 AM 44.4°F6.9°C 42.2°F5.7°C 92% Calm Calm -- 30.20 in1022.7 mb 0.00 in0.0 mm 0.00 in0.0 mm 0.00 in0.0 mm
12:15 AM 44.4°F6.9°C 42.2°F5.7°C 92% Calm Calm -- 30.20 in1022.7 mb 0.00 in0.0 mm 0.00 in0.0 mm 0.00 in0.0 mm
12:10 AM 44.4°F6.9°C 42.2°F5.7°C 92% Calm Calm -- 30.20 in1022.7 mb 0.00 in0.0 mm 0.00 in0.0 mm 0.00 in0.0 mm
12:05 AM 44.4°F6.9°C 42.2°F5.7°C 92% Calm Calm -- 30.20 in1022.7 mb 0.00 in0.0 mm 0.00 in0.0 mm 0.00 in0.0 mm
12:00 AM 44.4°F6.9°C 42.2°F5.7°C 92% Calm Calm -- 30.20 in1022.7 mb 0.00 in0.0 mm 0.00 in0.0 mm 0.00 in0.0 mm